Time;durP1;ratioP1;P1;durP2;ratioP2;P2;SDS_P1;SDS_P2;PMS_P1;PMS_P2;Temp;Humidity;BMP_temperature;BMP_pressure;BME280_temperature;BME280_humidity;BME280_pressure;Samples;Min_cycle;Max_cycle;Signal;HPM_P1;HPM_P2
2022/08/03 00:01:33;;;;;;;;;;;;;;;22.65;77.24;101174.41;7287898;19;153636;-67
2022/08/03 00:04:00;;;;;;;;;;;;;;;22.73;76.48;101162.41;7283157;19;153123;-68
2022/08/03 00:06:27;;;;;;;;;;;;;;;22.76;75.95;101171.06;7285241;19;153653;-67
2022/08/03 00:09:00;;;;;;;;;;;;;;;22.75;76.05;101165.75;7286247;19;153880;-68
2022/08/03 00:11:27;;;;;;;;;;;;;;;22.75;76.33;101162.94;7285791;19;154011;-69
2022/08/03 00:13:54;;;;;;;;;;;;;;;22.78;76.37;101165.94;7287986;19;151881;-68
2022/08/03 00:16:21;;;;;;;;;;;;;;;22.73;76.11;101157.63;7289359;19;153742;-68
2022/08/03 00:18:48;;;;;;;;;;;;;;;22.77;75.89;101161.47;7292215;19;153798;-68
2022/08/03 00:21:15;;;;;;;;;;;;;;;22.72;76.04;101164.41;7289248;19;153075;-68
2022/08/03 00:23:42;;;;;;;;;;;;;;;22.75;75.98;101160.13;7286087;19;156267;-68
2022/08/03 00:26:18;;;;;;;;;;;;;;;22.77;75.93;101157.81;7289155;19;152495;-67
2022/08/03 00:28:45;;;;;;;;;;;;;;;22.69;76.66;101155.72;7287847;19;152791;-69
2022/08/03 00:31:12;;;;;;;;;;;;;;;22.72;76.01;101155.09;7287018;19;154331;-68
2022/08/03 00:33:39;;;;;;;;;;;;;;;22.66;76.48;101154.38;7285493;19;152132;-68
2022/08/03 00:36:25;;;;;;;;;;;;;;;22.71;75.80;101154.31;7288440;19;152868;-68
2022/08/03 00:38:52;;;;;;;;;;;;;;;22.62;76.65;101151.34;7285609;19;155223;-67
2022/08/03 00:41:19;;;;;;;;;;;;;;;22.66;76.38;101145.09;7295124;19;152298;-68
2022/08/03 00:43:46;;;;;;;;;;;;;;;22.76;75.80;101150.53;7286391;19;154591;-68
2022/08/03 00:46:13;;;;;;;;;;;;;;;22.78;75.38;101151.03;7288605;19;152096;-68
2022/08/03 00:48:47;;;;;;;;;;;;;;;22.75;75.53;101143.22;7284364;19;153964;-68
2022/08/03 00:51:14;;;;;;;;;;;;;;;22.89;74.79;101152.47;7287103;19;153943;-68
2022/08/03 00:53:42;;;;;;;;;;;;;;;22.79;75.24;101149.88;7286486;19;152992;-68
2022/08/03 00:56:11;;;;;;;;;;;;;;;22.72;75.78;101155.09;7287014;19;152788;-67
2022/08/03 00:58:38;;;;;;;;;;;;;;;22.50;76.78;101142.63;7282603;19;153409;-69
2022/08/03 01:01:05;;;;;;;;;;;;;;;22.53;77.01;101144.81;7278892;19;153474;-68
2022/08/03 01:03:33;;;;;;;;;;;;;;;22.57;76.65;101148.69;7284448;19;153120;-67
2022/08/03 01:06:11;;;;;;;;;;;;;;;22.56;76.68;101140.53;7282329;19;153345;-67
2022/08/03 01:08:46;;;;;;;;;;;;;;;22.51;76.85;101133.03;7284727;19;152715;-67
2022/08/03 01:11:19;;;;;;;;;;;;;;;22.61;76.34;101146.06;7281719;19;154185;-68
2022/08/03 01:13:49;;;;;;;;;;;;;;;22.54;76.53;101142.81;7283552;19;152718;-69
2022/08/03 01:16:47;;;;;;;;;;;;;;;22.54;76.25;101142.81;7287056;19;154888;-68
2022/08/03 01:19:32;;;;;;;;;;;;;;;22.57;76.15;101139.41;7283033;19;153225;-68
2022/08/03 01:22:09;;;;;;;;;;;;;;;22.66;75.59;101151.56;7283623;19;151804;-67
2022/08/03 01:24:43;;;;;;;;;;;;;;;22.63;75.27;101146.56;7289437;19;154583;-68
2022/08/03 01:27:10;;;;;;;;;;;;;;;22.55;75.93;101156.59;7284968;19;151759;-68
2022/08/03 01:29:51;;;;;;;;;;;;;;;22.56;76.01;101149.00;7283952;19;153461;-69
2022/08/03 01:32:24;;;;;;;;;;;;;;;22.48;76.46;101144.97;7284586;19;154144;-67
2022/08/03 01:35:13;;;;;;;;;;;;;;;22.40;77.46;101154.13;7282509;19;152057;-68
2022/08/03 01:37:46;;;;;;;;;;;;;;;22.44;76.84;101149.53;7284827;19;152825;-68
2022/08/03 01:40:14;;;;;;;;;;;;;;;22.52;76.46;101153.59;7283451;19;154263;-68
2022/08/03 01:42:43;;;;;;;;;;;;;;;22.50;76.45;101153.06;7284527;19;151687;-68
2022/08/03 01:45:11;;;;;;;;;;;;;;;22.47;76.41;101156.53;7282610;19;153340;-68
2022/08/03 01:47:39;;;;;;;;;;;;;;;22.50;76.39;101156.72;7292016;19;153375;-68
2022/08/03 01:50:07;;;;;;;;;;;;;;;22.34;77.42;101166.66;7279710;19;152640;-68
2022/08/03 01:52:36;;;;;;;;;;;;;;;22.17;78.57;101161.66;7284187;19;154629;-68
2022/08/03 01:55:04;;;;;;;;;;;;;;;22.10;79.76;101161.28;7283751;19;152296;-68
2022/08/03 01:57:32;;;;;;;;;;;;;;;22.16;79.70;101157.22;7282031;19;152570;-68
2022/08/03 02:00:19;;;;;;;;;;;;;;;22.17;79.47;101160.84;7270967;19;154606;-67
2022/08/03 02:02:48;;;;;;;;;;;;;;;22.23;79.23;101159.59;7278553;19;153552;-67
2022/08/03 02:05:16;;;;;;;;;;;;;;;22.34;78.23;101163.03;7276295;19;153587;-68
2022/08/03 02:07:45;;;;;;;;;;;;;;;22.44;77.32;101152.34;7283443;19;153512;-67
2022/08/03 02:10:15;;;;;;;;;;;;;;;22.25;78.30;101162.94;7290180;19;153023;-68
2022/08/03 02:13:02;;;;;;;;;;;;;;;22.12;79.51;101161.78;7278101;19;153757;-67
2022/08/03 02:15:33;;;;;;;;;;;;;;;22.25;79.03;101156.47;7280988;19;152753;-68
2022/08/03 02:18:07;;;;;;;;;;;;;;;22.33;77.92;101162.19;7282959;19;152349;-68
2022/08/03 02:20:37;;;;;;;;;;;;;;;22.17;79.09;101158.00;7279409;19;152691;-68
2022/08/03 02:23:06;;;;;;;;;;;;;;;22.16;78.75;101156.38;7283813;19;152260;-67
2022/08/03 02:25:37;;;;;;;;;;;;;;;22.13;79.26;101154.16;7281091;19;154140;-68
2022/08/03 02:28:07;;;;;;;;;;;;;;;22.16;79.27;101145.97;7283182;19;153152;-68
2022/08/03 02:30:39;;;;;;;;;;;;;;;22.24;78.52;101151.97;7284073;19;152218;-69
2022/08/03 02:33:09;;;;;;;;;;;;;;;22.26;78.56;101139.25;7290893;19;153113;-68
2022/08/03 02:35:38;;;;;;;;;;;;;;;22.24;78.76;101146.34;7274802;19;152223;-67
2022/08/03 02:38:09;;;;;;;;;;;;;;;22.15;79.21;101143.44;7279061;19;152953;-67
2022/08/03 02:40:44;;;;;;;;;;;;;;;22.16;78.54;101143.13;7274351;19;152396;-67
2022/08/03 02:43:15;;;;;;;;;;;;;;;22.11;79.12;101148.03;7276885;19;152467;-68
2022/08/03 02:45:44;;;;;;;;;;;;;;;22.19;78.69;101152.91;7276589;19;153958;-68
2022/08/03 02:48:21;;;;;;;;;;;;;;;22.20;78.71;101148.13;7276176;19;154319;-68
2022/08/03 02:50:53;;;;;;;;;;;;;;;22.17;78.54;101143.94;7279082;19;153379;-68
2022/08/03 02:53:21;;;;;;;;;;;;;;;22.14;79.11;101145.41;7282391;19;152840;-68
2022/08/03 02:55:49;;;;;;;;;;;;;;;22.09;79.23;101141.88;7289240;19;153452;-68
2022/08/03 02:58:22;;;;;;;;;;;;;;;22.12;79.22;101133.63;7283684;19;153287;-68
2022/08/03 03:00:52;;;;;;;;;;;;;;;22.09;79.47;101137.09;7281902;19;152152;-68
2022/08/03 03:03:20;;;;;;;;;;;;;;;22.31;77.79;101130.69;7282421;19;151936;-68
2022/08/03 03:05:48;;;;;;;;;;;;;;;22.32;77.53;101129.53;7278390;19;153490;-68
2022/08/03 03:08:27;;;;;;;;;;;;;;;22.17;78.43;101121.44;7279880;19;154080;-68
2022/08/03 03:10:57;;;;;;;;;;;;;;;22.16;78.56;101116.97;7281750;19;151941;-67
2022/08/03 03:13:24;;;;;;;;;;;;;;;22.16;78.84;101122.59;7277660;19;156918;-68
2022/08/03 03:15:52;;;;;;;;;;;;;;;22.24;78.26;101113.41;7281677;19;153733;-67
2022/08/03 03:18:21;;;;;;;;;;;;;;;22.22;78.40;101112.03;7291422;19;152044;-68
2022/08/03 03:20:51;;;;;;;;;;;;;;;22.21;78.32;101111.22;7279553;19;154440;-67
2022/08/03 03:23:20;;;;;;;;;;;;;;;22.21;78.35;101104.78;7278899;19;152741;-68
2022/08/03 03:25:47;;;;;;;;;;;;;;;22.21;77.94;101099.97;7281779;19;152614;-68
2022/08/03 03:28:14;;;;;;;;;;;;;;;22.27;77.45;101104.31;7281086;19;153872;-67
2022/08/03 03:30:41;;;;;;;;;;;;;;;22.14;78.11;101102.38;7282942;19;152095;-67
2022/08/03 03:33:08;;;;;;;;;;;;;;;22.26;77.80;101099.03;7283118;19;152615;-68
2022/08/03 03:35:36;;;;;;;;;;;;;;;22.28;77.23;101097.53;7278851;19;153276;-67
2022/08/03 03:38:07;;;;;;;;;;;;;;;22.25;77.50;101103.00;7289141;19;152497;-68
2022/08/03 03:40:34;;;;;;;;;;;;;;;22.18;78.13;101111.84;7279381;19;154538;-68
2022/08/03 03:43:02;;;;;;;;;;;;;;;22.33;77.24;101105.03;7280401;19;153217;-68
2022/08/03 03:45:29;;;;;;;;;;;;;;;22.33;77.22;101114.31;7280068;19;153731;-67
2022/08/03 03:47:58;;;;;;;;;;;;;;;22.38;76.54;101117.03;7279928;19;153771;-68
2022/08/03 03:50:26;;;;;;;;;;;;;;;22.30;76.78;101117.78;7279193;19;152643;-68
2022/08/03 03:52:54;;;;;;;;;;;;;;;22.39;76.51;101112.22;7281570;19;153786;-68
2022/08/03 03:55:21;;;;;;;;;;;;;;;22.42;76.25;101108.78;7280820;19;154494;-68
2022/08/03 03:57:47;;;;;;;;;;;;;;;22.38;76.25;101104.94;7279044;19;153494;-68
2022/08/03 04:00:15;;;;;;;;;;;;;;;22.45;76.50;101116.56;7286835;19;153325;-68
2022/08/03 04:02:50;;;;;;;;;;;;;;;22.30;76.94;101108.50;7279458;19;152592;-67
2022/08/03 04:11:11;;;;;;;;;;;;;;;22.12;78.99;101115.94;7280117;19;152695;-68
2022/08/03 04:13:43;;;;;;;;;;;;;;;22.27;77.75;101124.03;7276088;19;154678;-67
2022/08/03 04:16:11;;;;;;;;;;;;;;;22.12;78.75;101121.56;7278016;19;153545;-68
2022/08/03 04:18:40;;;;;;;;;;;;;;;22.25;78.01;101119.88;7277855;19;152266;-68
2022/08/03 04:21:12;;;;;;;;;;;;;;;22.23;77.90;101131.44;7280916;19;152807;-67
2022/08/03 04:23:41;;;;;;;;;;;;;;;22.14;78.45;101127.69;7285972;19;152244;-68
2022/08/03 04:26:10;;;;;;;;;;;;;;;22.28;77.86;101119.22;7279425;19;153337;-67
2022/08/03 04:28:40;;;;;;;;;;;;;;;22.32;77.48;101123.91;7279197;19;153337;-68
2022/08/03 04:31:07;;;;;;;;;;;;;;;22.21;77.76;101139.38;7281299;19;153025;-69
2022/08/03 04:33:36;;;;;;;;;;;;;;;22.16;78.53;101136.69;7279172;19;153552;-68
2022/08/03 04:36:04;;;;;;;;;;;;;;;22.26;78.15;101136.44;7278645;19;153147;-68
2022/08/03 04:38:35;;;;;;;;;;;;;;;22.24;77.98;101135.94;7279581;19;151905;-68
2022/08/03 04:41:02;;;;;;;;;;;;;;;22.27;77.72;101137.25;7287527;19;154017;-68
2022/08/03 04:43:30;;;;;;;;;;;;;;;22.29;77.52;101141.44;7285085;19;152204;-67
2022/08/03 04:45:58;;;;;;;;;;;;;;;22.28;77.58;101150.19;7294294;19;152093;-68
2022/08/03 04:48:25;;;;;;;;;;;;;;;22.20;78.05;101153.75;7286377;19;154296;-69
2022/08/03 04:50:52;;;;;;;;;;;;;;;22.10;79.21;101147.19;7285133;19;153329;-68
2022/08/03 04:53:20;;;;;;;;;;;;;;;21.94;81.30;101145.03;7286985;19;152723;-68
2022/08/03 04:55:47;;;;;;;;;;;;;;;21.93;81.31;101149.00;7285142;19;154477;-68
2022/08/03 04:58:13;;;;;;;;;;;;;;;21.97;81.40;101147.22;7287287;19;151846;-67
2022/08/03 05:00:41;;;;;;;;;;;;;;;21.96;81.75;101148.34;7287178;19;153514;-67
2022/08/03 05:03:08;;;;;;;;;;;;;;;21.93;82.26;101154.63;7284117;19;153841;-68
2022/08/03 05:05:50;;;;;;;;;;;;;;;21.83;82.90;101154.78;7283385;19;152044;-66
2022/08/03 05:08:18;;;;;;;;;;;;;;;22.00;82.32;101158.66;7292764;19;152917;-67
2022/08/03 05:10:54;;;;;;;;;;;;;;;21.95;81.87;101153.16;7287147;19;152196;-68
2022/08/03 05:13:24;;;;;;;;;;;;;;;21.87;82.82;101172.69;7285715;19;153545;-68
2022/08/03 05:15:51;;;;;;;;;;;;;;;21.86;83.28;101165.41;7281091;19;153739;-67
2022/08/03 05:18:18;;;;;;;;;;;;;;;21.91;82.89;101160.50;7287203;19;152144;-68
2022/08/03 05:20:45;;;;;;;;;;;;;;;21.96;82.29;101163.25;7283016;19;152764;-68
2022/08/03 05:23:12;;;;;;;;;;;;;;;21.92;82.90;101161.34;7285035;19;153932;-68
2022/08/03 05:25:38;;;;;;;;;;;;;;;21.98;82.15;101163.78;7285019;19;153557;-67
2022/08/03 05:28:15;;;;;;;;;;;;;;;21.99;82.17;101167.41;7286667;19;152996;-67
2022/08/03 05:30:42;;;;;;;;;;;;;;;22.04;81.92;101167.31;7290618;19;152024;-67
2022/08/03 05:33:08;;;;;;;;;;;;;;;22.10;81.25;101168.88;7285824;19;152759;-68
2022/08/03 05:35:37;;;;;;;;;;;;;;;22.17;80.45;101167.28;7281652;19;153978;-68
2022/08/03 05:38:24;;;;;;;;;;;;;;;22.22;80.08;101166.34;7284859;19;152389;-68
2022/08/03 05:41:00;;;;;;;;;;;;;;;22.21;79.87;101158.25;7285775;19;153664;-68
2022/08/03 05:43:47;;;;;;;;;;;;;;;22.13;80.29;101163.44;7284606;19;155657;-68
2022/08/03 05:46:14;;;;;;;;;;;;;;;22.14;80.43;101167.09;7284664;19;152349;-68
2022/08/03 05:48:41;;;;;;;;;;;;;;;22.22;79.98;101157.06;7282959;19;152463;-67
2022/08/03 05:51:09;;;;;;;;;;;;;;;22.18;79.89;101157.72;7290795;19;153342;-67
2022/08/03 05:53:37;;;;;;;;;;;;;;;22.29;79.51;101168.75;7284406;19;153347;-67
2022/08/03 05:56:04;;;;;;;;;;;;;;;22.16;80.41;101167.63;7284046;19;153714;-68
2022/08/03 05:58:46;;;;;;;;;;;;;;;22.21;79.98;101166.69;7284403;19;152272;-68
2022/08/03 06:01:16;;;;;;;;;;;;;;;22.14;80.67;101165.13;7284681;19;151975;-67
2022/08/03 06:03:45;;;;;;;;;;;;;;;22.20;80.63;101170.66;7280738;19;154162;-68
2022/08/03 06:06:12;;;;;;;;;;;;;;;22.17;81.06;101163.66;7284494;19;152288;-68
2022/08/03 06:08:40;;;;;;;;;;;;;;;22.17;81.29;101169.28;7283172;19;153436;-68
2022/08/03 06:11:07;;;;;;;;;;;;;;;22.13;81.05;101163.44;7284198;19;153317;-68
2022/08/03 06:13:33;;;;;;;;;;;;;;;22.16;81.27;101164.81;7289459;19;152530;-68
2022/08/03 06:16:00;;;;;;;;;;;;;;;22.19;81.56;101164.19;7279294;19;154147;-68
2022/08/03 06:18:27;;;;;;;;;;;;;;;22.11;82.38;101174.19;7283015;19;152715;-67
2022/08/03 06:20:54;;;;;;;;;;;;;;;22.17;82.12;101169.28;7282488;19;154008;-68
2022/08/03 06:23:20;;;;;;;;;;;;;;;22.16;83.11;101173.25;7281880;19;152125;-68
2022/08/03 06:25:47;;;;;;;;;;;;;;;22.15;82.89;101158.34;7283730;19;153145;-68
2022/08/03 06:28:14;;;;;;;;;;;;;;;22.26;82.09;101161.75;7284456;19;153322;-68
2022/08/03 06:31:01;;;;;;;;;;;;;;;22.31;81.84;101167.28;7283006;19;155893;-68
2022/08/03 06:33:28;;;;;;;;;;;;;;;22.32;81.22;101166.13;7283511;19;153050;-67
2022/08/03 06:36:14;;;;;;;;;;;;;;;22.27;81.81;101168.22;7288892;19;154785;-68
2022/08/03 06:38:41;;;;;;;;;;;;;;;22.26;82.66;101172.22;7282440;19;151959;-67
2022/08/03 06:41:08;;;;;;;;;;;;;;;22.29;81.77;101174.38;7284473;19;153682;-67
2022/08/03 06:43:36;;;;;;;;;;;;;;;22.30;81.30;101174.09;7281263;19;153991;-68
2022/08/03 06:46:22;;;;;;;;;;;;;;;22.28;81.86;101173.56;7283020;19;152108;-68
2022/08/03 06:48:49;;;;;;;;;;;;;;;22.38;81.02;101164.88;7281387;19;152296;-67
2022/08/03 06:51:18;;;;;;;;;;;;;;;22.37;81.16;101168.00;7283098;19;153697;-68
2022/08/03 06:53:45;;;;;;;;;;;;;;;22.31;81.68;101167.28;7280349;19;152461;-68
2022/08/03 06:56:11;;;;;;;;;;;;;;;22.39;81.01;101158.13;7284272;19;153156;-68
2022/08/03 06:58:38;;;;;;;;;;;;;;;22.23;83.12;101168.03;7287759;19;153129;-68
2022/08/03 07:01:04;;;;;;;;;;;;;;;22.28;83.01;101167.91;7283977;19;153443;-67
2022/08/03 07:03:31;;;;;;;;;;;;;;;22.28;82.71;101155.81;7278801;19;153957;-68
2022/08/03 07:05:58;;;;;;;;;;;;;;;22.26;82.95;101169.41;7283390;19;152552;-67
2022/08/03 07:08:25;;;;;;;;;;;;;;;22.14;84.71;101184.00;7279796;19;153192;-68
2022/08/03 07:10:59;;;;;;;;;;;;;;;22.21;83.67;101175.97;7282612;19;153505;-68
2022/08/03 07:13:26;;;;;;;;;;;;;;;22.25;83.70;101177.00;7283697;19;152329;-68
2022/08/03 07:15:55;;;;;;;;;;;;;;;22.19;84.31;101175.44;7283813;19;152282;-67
2022/08/03 07:18:22;;;;;;;;;;;;;;;22.33;82.90;101172.59;7282712;19;153394;-68
2022/08/03 07:20:55;;;;;;;;;;;;;;;22.37;82.25;101177.28;7288570;19;153089;-68
2022/08/03 07:23:22;;;;;;;;;;;;;;;22.30;82.83;101181.69;7281506;19;154192;-69
2022/08/03 07:25:49;;;;;;;;;;;;;;;22.31;82.69;101175.72;7282037;19;152037;-69
2022/08/03 07:28:16;;;;;;;;;;;;;;;22.36;82.27;101172.81;7280660;19;154035;-67
2022/08/03 07:30:43;;;;;;;;;;;;;;;22.39;81.89;101176.97;7280926;19;152395;-68
2022/08/03 07:33:10;;;;;;;;;;;;;;;22.37;82.34;101187.72;7283555;19;152207;-68
2022/08/03 07:35:36;;;;;;;;;;;;;;;22.42;82.14;101185.63;7280082;19;153628;-68
2022/08/03 07:38:03;;;;;;;;;;;;;;;22.39;82.56;101177.81;7279944;19;153692;-68
2022/08/03 07:40:30;;;;;;;;;;;;;;;22.41;81.73;101181.13;7289464;19;152475;-68
2022/08/03 07:42:58;;;;;;;;;;;;;;;22.43;82.18;101175.19;7281222;19;154080;-67
2022/08/03 07:45:25;;;;;;;;;;;;;;;22.38;82.91;101181.78;7282486;19;151999;-68
2022/08/03 07:47:52;;;;;;;;;;;;;;;22.43;82.73;101178.03;7280681;19;153736;-68
2022/08/03 07:50:20;;;;;;;;;;;;;;;22.36;82.87;101178.44;7278549;19;154327;-68
2022/08/03 07:52:52;;;;;;;;;;;;;;;22.43;82.36;101184.50;7281590;19;152508;-68
2022/08/03 07:55:20;;;;;;;;;;;;;;;22.42;82.99;101185.63;7282258;19;153276;-68
2022/08/03 07:57:47;;;;;;;;;;;;;;;22.48;82.12;101175.94;7279532;19;153472;-67
2022/08/03 08:00:18;;;;;;;;;;;;;;;22.47;81.94;101182.69;7282095;19;152016;-68
2022/08/03 08:02:51;;;;;;;;;;;;;;;22.43;82.47;101189.28;7286158;19;152756;-69
2022/08/03 08:05:18;;;;;;;;;;;;;;;22.51;82.39;101188.53;7277826;19;152976;-68
2022/08/03 08:07:44;;;;;;;;;;;;;;;22.47;82.53;101188.34;7280303;19;153634;-67
2022/08/03 08:10:17;;;;;;;;;;;;;;;22.51;82.47;101196.97;7279617;19;154009;-67
2022/08/03 08:12:51;;;;;;;;;;;;;;;22.46;82.73;101191.44;7283754;19;152372;-68
2022/08/03 08:15:18;;;;;;;;;;;;;;;22.47;83.13;101179.88;7288530;19;153885;-68
2022/08/03 08:17:47;;;;;;;;;;;;;;;22.41;83.94;101163.41;7288121;19;154146;-68
2022/08/03 08:20:15;;;;;;;;;;;;;;;22.50;82.88;101176.44;7285584;19;152126;-68
2022/08/03 08:22:51;;;;;;;;;;;;;;;22.50;82.71;101173.63;7286750;19;152209;-67
2022/08/03 08:25:18;;;;;;;;;;;;;;;22.52;82.71;101174.16;7293802;19;154584;-68
2022/08/03 08:27:46;;;;;;;;;;;;;;;22.62;81.28;101173.88;7285931;19;152515;-69
2022/08/03 08:30:33;;;;;;;;;;;;;;;22.60;82.25;101183.81;7287040;19;156738;-68
2022/08/03 08:33:00;;;;;;;;;;;;;;;22.51;83.22;101178.09;7288516;19;152713;-67
2022/08/03 08:35:27;;;;;;;;;;;;;;;22.53;82.84;101170.16;7286082;19;153367;-67
2022/08/03 08:37:54;;;;;;;;;;;;;;;22.50;83.54;101169.97;7286369;19;154449;-67
2022/08/03 08:40:22;;;;;;;;;;;;;;;22.54;83.10;101166.19;7286693;19;151830;-68
2022/08/03 08:42:53;;;;;;;;;;;;;;;22.56;83.23;101172.34;7286977;19;153686;-68
2022/08/03 08:45:24;;;;;;;;;;;;;;;22.60;82.93;101173.38;7286658;19;154555;-68
2022/08/03 08:47:53;;;;;;;;;;;;;;;22.60;83.21;101186.63;7293637;19;151939;-68
2022/08/03 08:50:27;;;;;;;;;;;;;;;22.60;83.11;101176.19;7283984;19;153836;-67
2022/08/03 08:52:55;;;;;;;;;;;;;;;22.50;84.88;101179.25;7287143;19;152127;-67
2022/08/03 08:55:22;;;;;;;;;;;;;;;22.53;84.61;101181.41;7286357;19;153313;-68
2022/08/03 08:57:51;;;;;;;;;;;;;;;22.46;85.63;101186.66;7286446;19;154636;-68
2022/08/03 09:00:18;;;;;;;;;;;;;;;22.45;86.26;101178.53;7285788;19;152459;-68
2022/08/03 09:02:52;;;;;;;;;;;;;;;22.49;85.76;101171.94;7283558;19;152578;-68
2022/08/03 09:05:19;;;;;;;;;;;;;;;22.46;86.51;101183.84;7281723;19;152284;-68
2022/08/03 09:08:06;;;;;;;;;;;;;;;22.46;87.18;101186.66;7284529;19;154164;-68
2022/08/03 09:10:33;;;;;;;;;;;;;;;22.51;86.57;101172.47;7292778;19;152594;-68
2022/08/03 09:13:00;;;;;;;;;;;;;;;22.47;87.54;101171.44;7287426;19;152404;-68
2022/08/03 09:15:32;;;;;;;;;;;;;;;22.49;87.68;101179.56;7287168;19;153268;-68
2022/08/03 09:18:00;;;;;;;;;;;;;;;22.50;87.18;101184.88;7284667;19;152412;-68
2022/08/03 09:20:28;;;;;;;;;;;;;;;22.50;87.56;101173.63;7284506;19;152373;-67
2022/08/03 09:23:00;;;;;;;;;;;;;;;22.53;87.54;101175.78;7286543;19;154452;-68
2022/08/03 09:25:47;;;;;;;;;;;;;;;22.58;87.61;101170.03;7282167;19;155734;-68
2022/08/03 09:28:15;;;;;;;;;;;;;;;22.63;87.23;101164.28;7285454;19;151891;-67
2022/08/03 09:31:02;;;;;;;;;;;;;;;22.62;86.30;101175.91;7286588;19;154253;-68
2022/08/03 09:33:29;;;;;;;;;;;;;;;22.59;87.43;101166.09;7292974;19;152149;-68
2022/08/03 09:36:01;;;;;;;;;;;;;;;22.60;87.12;101170.56;7284203;19;152874;-68
2022/08/03 09:38:28;;;;;;;;;;;;;;;22.57;87.42;101174.03;7281377;19;154000;-67
2022/08/03 09:40:55;;;;;;;;;;;;;;;22.65;86.77;101171.59;7285222;19;154016;-68
2022/08/03 09:43:26;;;;;;;;;;;;;;;22.64;86.74;101173.56;7285533;19;152806;-68
2022/08/03 09:46:01;;;;;;;;;;;;;;;22.70;86.78;101160.25;7285240;19;153254;-68
2022/08/03 09:48:29;;;;;;;;;;;;;;;22.76;85.74;101158.97;7283034;19;153878;-67
2022/08/03 09:50:57;;;;;;;;;;;;;;;22.74;85.58;101172.53;7284517;19;154270;-69
2022/08/03 09:53:42;;;;;;;;;;;;;;;22.72;85.85;101167.22;7289789;19;155332;-67
2022/08/03 09:56:36;;;;;;;;;;;;;;;22.79;84.99;101164.81;7286052;19;153447;-68
2022/08/03 09:59:02;;;;;;;;;;;;;;;22.75;85.33;101172.22;7284557;19;154148;-68
2022/08/03 10:01:33;;;;;;;;;;;;;;;22.75;85.64;101171.41;7282813;19;152360;-67
2022/08/03 10:04:01;;;;;;;;;;;;;;;22.78;85.55;101168.78;7282296;19;153209;-68
2022/08/03 10:06:29;;;;;;;;;;;;;;;22.77;85.67;101163.44;7283957;19;153536;-67
2022/08/03 10:09:07;;;;;;;;;;;;;;;22.81;85.16;101172.91;7282797;19;152502;-68
2022/08/03 10:11:34;;;;;;;;;;;;;;;22.81;84.90;101165.31;7282439;19;152524;-67
2022/08/03 10:14:08;;;;;;;;;;;;;;;22.82;84.90;101157.69;7280829;19;152510;-68
2022/08/03 10:16:36;;;;;;;;;;;;;;;22.87;84.31;101161.22;7292765;19;151753;-67
2022/08/03 10:19:03;;;;;;;;;;;;;;;22.88;84.31;101157.25;7280341;19;153898;-69
2022/08/03 10:21:35;;;;;;;;;;;;;;;22.91;83.63;101165.06;7282854;19;154566;-67
2022/08/03 10:24:06;;;;;;;;;;;;;;;22.95;84.17;101153.97;7281474;19;153493;-68
2022/08/03 10:26:35;;;;;;;;;;;;;;;22.94;84.06;101157.97;7283704;19;153417;-67
2022/08/03 10:29:04;;;;;;;;;;;;;;;22.97;83.87;101157.31;7281882;19;152847;-67
2022/08/03 10:31:39;;;;;;;;;;;;;;;22.99;83.71;101155.00;7284004;19;153399;-67
2022/08/03 10:34:25;;;;;;;;;;;;;;;23.04;83.53;101147.25;7279976;19;152494;-68
2022/08/03 10:36:54;;;;;;;;;;;;;;;23.05;83.94;101156.53;7284146;19;151960;-68
2022/08/03 10:39:21;;;;;;;;;;;;;;;23.08;83.74;101158.72;7288925;19;153322;-68
2022/08/03 10:41:49;;;;;;;;;;;;;;;23.10;83.27;101145.16;7284096;19;152497;-67
2022/08/03 10:44:20;;;;;;;;;;;;;;;23.10;83.80;101144.31;7281640;19;153405;-67
2022/08/03 10:46:49;;;;;;;;;;;;;;;23.13;82.94;101150.13;7283451;19;153849;-68
2022/08/03 10:49:18;;;;;;;;;;;;;;;23.15;83.18;101145.03;7278749;19;152553;-67
2022/08/03 10:52:00;;;;;;;;;;;;;;;23.18;82.59;101146.34;7283352;19;152003;-68
2022/08/03 10:54:34;;;;;;;;;;;;;;;23.22;82.44;101159.47;7282032;19;154249;-67
2022/08/03 10:59:50;;;;;;;;;;;;;;;23.26;82.08;101146.41;7269720;19;153148;-68
2022/08/03 11:02:17;;;;;;;;;;;;;;;23.30;82.13;101141.81;7285401;19;152890;-68
2022/08/03 11:04:44;;;;;;;;;;;;;;;23.33;81.80;101138.34;7259607;19;154116;-68
2022/08/03 11:07:17;;;;;;;;;;;;;;;23.35;81.46;101152.91;7274905;19;153000;-67
2022/08/03 11:09:47;;;;;;;;;;;;;;;23.39;81.34;101130.56;7277470;19;155825;-67
2022/08/03 11:12:20;;;;;;;;;;;;;;;23.40;81.27;101149.97;7280736;19;153576;-69
2022/08/03 11:14:57;;;;;;;;;;;;;;;23.44;80.70;101136.09;7279045;19;154714;-68
2022/08/03 11:17:24;;;;;;;;;;;;;;;23.45;80.20;101132.09;7282967;19;152150;-69
2022/08/03 11:19:51;;;;;;;;;;;;;;;23.50;80.30;101129.16;7277994;19;152715;-68
2022/08/03 11:22:23;;;;;;;;;;;;;;;23.54;79.82;101132.97;7279943;19;154513;-68
2022/08/03 11:24:52;;;;;;;;;;;;;;;23.53;79.39;101130.50;7287553;19;152507;-68
2022/08/03 11:27:23;;;;;;;;;;;;;;;23.53;79.98;101133.34;7278677;19;154783;-68
2022/08/03 11:29:52;;;;;;;;;;;;;;;23.58;79.27;101133.16;7277643;19;152477;-68
2022/08/03 11:32:42;;;;;;;;;;;;;;;23.59;79.23;101132.84;7281338;19;153250;-68
2022/08/03 11:35:21;;;;;;;;;;;;;;;23.61;79.38;101136.19;7274137;19;153900;-68
2022/08/03 11:37:57;;;;;;;;;;;;;;;23.65;78.77;101148.50;7279684;19;152810;-68
2022/08/03 11:40:41;;;;;;;;;;;;;;;23.63;78.80;101142.31;7279068;19;153481;-68
2022/08/03 11:43:09;;;;;;;;;;;;;;;23.62;78.94;101146.28;7278929;19;153176;-68
2022/08/03 11:45:36;;;;;;;;;;;;;;;23.65;78.36;101137.19;7282945;19;153093;-68
2022/08/03 11:48:21;;;;;;;;;;;;;;;23.62;78.66;101139.84;7289879;19;152617;-68
2022/08/03 11:50:48;;;;;;;;;;;;;;;23.66;78.54;101138.03;7285883;19;152948;-68
2022/08/03 11:53:16;;;;;;;;;;;;;;;23.68;78.21;101133.72;7288451;19;152908;-67
2022/08/03 11:55:47;;;;;;;;;;;;;;;23.70;77.59;101134.25;7286139;19;154077;-67
2022/08/03 11:58:18;;;;;;;;;;;;;;;23.67;78.04;101126.41;7286367;19;152331;-68
2022/08/03 12:01:05;;;;;;;;;;;;;;;23.69;77.36;101134.56;7287586;19;156365;-68
2022/08/03 12:03:33;;;;;;;;;;;;;;;23.72;77.82;101126.25;7285557;19;154206;-69
2022/08/03 12:06:03;;;;;;;;;;;;;;;23.75;77.71;101133.25;7282727;19;152205;-68
2022/08/03 12:08:31;;;;;;;;;;;;;;;23.76;77.57;101134.91;7289790;19;152621;-68
2022/08/03 12:10:59;;;;;;;;;;;;;;;23.78;77.39;101121.31;7287953;19;152161;-68
2022/08/03 12:13:26;;;;;;;;;;;;;;;23.81;77.16;101131.94;7287094;19;153275;-68
2022/08/03 12:16:17;;;;;;;;;;;;;;;23.78;76.87;101127.78;7288704;19;156580;-68
2022/08/03 12:18:44;;;;;;;;;;;;;;;23.78;77.31;101132.59;7284431;19;152656;-68
2022/08/03 12:21:11;;;;;;;;;;;;;;;23.82;76.95;101134.44;7288463;19;154765;-68
2022/08/03 12:23:38;;;;;;;;;;;;;;;23.86;77.00;101132.63;7285565;19;153303;-68
2022/08/03 12:26:08;;;;;;;;;;;;;;;23.82;76.61;101133.59;7286395;19;152091;-68
2022/08/03 12:28:35;;;;;;;;;;;;;;;23.86;76.54;101140.25;7284960;19;153624;-67
2022/08/03 12:31:06;;;;;;;;;;;;;;;23.92;76.42;101133.31;7290967;19;153149;-69
2022/08/03 12:33:52;;;;;;;;;;;;;;;23.96;75.89;101134.31;7286589;19;152767;-68
2022/08/03 12:36:19;;;;;;;;;;;;;;;23.97;75.55;101123.88;7286927;19;153031;-67
2022/08/03 12:38:53;;;;;;;;;;;;;;;24.00;75.30;101142.97;7285884;19;153002;-68
2022/08/03 12:41:26;;;;;;;;;;;;;;;24.04;75.60;101129.84;7287608;19;153477;-68
2022/08/03 12:43:53;;;;;;;;;;;;;;;24.08;75.10;101126.03;7285939;19;153502;-68
2022/08/03 12:46:20;;;;;;;;;;;;;;;24.12;74.25;101129.06;7287138;19;152153;-68
2022/08/03 12:48:56;;;;;;;;;;;;;;;24.12;74.59;101127.03;7283506;19;154006;-68
2022/08/03 12:51:26;;;;;;;;;;;;;;;24.15;74.20;101125.56;7287438;19;153451;-68
2022/08/03 12:53:54;;;;;;;;;;;;;;;24.20;73.99;101126.28;7293224;19;152532;-68